createdAt,value
2019-01-27T00:02:18.322Z,4.80
2019-01-27T00:05:08.240Z,7.07
2019-01-27T00:07:57.397Z,5.93
2019-01-27T00:10:46.334Z,5.63
2019-01-27T00:13:35.151Z,5.07
2019-01-27T00:16:23.991Z,6.00
2019-01-27T00:19:13.388Z,5.20
2019-01-27T00:22:02.598Z,5.10
2019-01-27T00:24:51.030Z,5.10
2019-01-27T00:27:40.805Z,5.10
2019-01-27T00:30:29.874Z,4.93
2019-01-27T00:33:18.641Z,4.77
2019-01-27T00:36:07.612Z,4.27
2019-01-27T00:38:56.617Z,3.93
2019-01-27T00:41:45.329Z,3.10
2019-01-27T00:44:34.366Z,2.50
2019-01-27T00:47:23.049Z,2.73
2019-01-27T00:50:14.607Z,2.70
2019-01-27T00:53:03.416Z,2.50
2019-01-27T00:55:52.040Z,2.63
2019-01-27T00:58:41.540Z,2.83
2019-01-27T01:01:33.534Z,3.03
2019-01-27T01:04:22.333Z,3.20
2019-01-27T01:07:11.772Z,2.50
2019-01-27T01:10:01.317Z,3.43
2019-01-27T01:12:51.003Z,4.20
2019-01-27T01:15:40.315Z,3.40
2019-01-27T01:18:29.074Z,3.33
2019-01-27T01:21:18.313Z,2.60
2019-01-27T01:24:07.260Z,3.00
2019-01-27T01:26:56.442Z,3.13
2019-01-27T01:29:45.808Z,2.70
2019-01-27T01:32:34.662Z,2.97
2019-01-27T01:35:23.784Z,4.27
2019-01-27T01:38:13.514Z,3.50
2019-01-27T01:41:02.592Z,3.00
2019-01-27T01:43:52.203Z,3.23
2019-01-27T01:46:41.989Z,3.47
2019-01-27T01:49:31.208Z,2.63
2019-01-27T01:52:19.986Z,3.00
2019-01-27T01:55:10.251Z,2.93
2019-01-27T01:57:58.963Z,3.20
2019-01-27T02:00:48.008Z,2.63
2019-01-27T02:03:36.839Z,2.93
2019-01-27T02:06:25.574Z,2.40
2019-01-27T02:09:14.504Z,2.90
2019-01-27T02:12:03.742Z,3.00
2019-01-27T02:14:52.719Z,2.80
2019-01-27T02:17:43.634Z,3.27
2019-01-27T02:20:32.385Z,3.20
2019-01-27T02:23:21.752Z,3.40
2019-01-27T02:26:11.095Z,3.63
2019-01-27T02:29:00.188Z,4.10
2019-01-27T02:31:49.401Z,3.53
2019-01-27T02:34:38.213Z,3.47
2019-01-27T02:37:27.580Z,2.87
2019-01-27T02:40:16.419Z,3.17
2019-01-27T02:43:05.302Z,5.33
2019-01-27T02:45:53.920Z,4.23
2019-01-27T02:48:43.213Z,3.90
2019-01-27T02:51:32.424Z,4.47
2019-01-27T02:54:22.077Z,5.33
2019-01-27T02:57:10.804Z,5.23
2019-01-27T02:59:59.909Z,7.33
2019-01-27T03:02:49.269Z,7.43
2019-01-27T03:05:57.368Z,7.83
2019-01-27T03:08:53.033Z,7.00
2019-01-27T03:11:48.537Z,6.43
2019-01-27T03:14:37.520Z,9.20
2019-01-27T03:17:26.247Z,11.33
2019-01-27T03:20:15.877Z,13.57
2019-01-27T03:23:04.509Z,6.10
2019-01-27T03:25:53.921Z,7.27
2019-01-27T03:28:43.006Z,8.63
2019-01-27T03:31:32.553Z,6.20
2019-01-27T03:34:21.481Z,8.27
2019-01-27T03:37:10.861Z,8.80
2019-01-27T03:40:00.176Z,7.97
2019-01-27T03:42:49.592Z,6.97
2019-01-27T03:45:38.880Z,6.33
2019-01-27T03:48:27.938Z,4.93
2019-01-27T03:51:17.320Z,6.47
2019-01-27T03:54:07.388Z,5.60
2019-01-27T03:56:56.536Z,4.60
2019-01-27T03:59:45.657Z,5.40
2019-01-27T04:02:34.988Z,6.13
2019-01-27T04:05:23.871Z,5.57
2019-01-27T04:08:12.637Z,3.50
2019-01-27T04:11:01.451Z,4.67
2019-01-27T04:13:50.892Z,4.47
2019-01-27T04:16:40.123Z,3.27
2019-01-27T04:19:29.050Z,3.87
2019-01-27T04:22:18.146Z,3.53
2019-01-27T04:25:07.659Z,2.73
2019-01-27T04:27:56.702Z,3.10
2019-01-27T04:30:45.874Z,2.37
2019-01-27T04:33:34.658Z,1.90
2019-01-27T04:36:23.647Z,2.00
2019-01-27T04:39:12.868Z,2.43
2019-01-27T04:42:01.709Z,2.10
2019-01-27T04:44:50.529Z,1.30
2019-01-27T04:47:39.759Z,1.47
2019-01-27T04:50:28.890Z,1.80
2019-01-27T04:53:17.975Z,1.30
2019-01-27T04:56:06.927Z,0.90
2019-01-27T04:58:55.686Z,1.10
2019-01-27T05:01:45.161Z,1.10
2019-01-27T05:04:39.131Z,1.27
2019-01-27T05:07:28.385Z,1.27
2019-01-27T05:10:17.171Z,1.00
2019-01-27T05:13:06.386Z,1.40
2019-01-27T05:15:55.316Z,1.10
2019-01-27T05:18:44.547Z,1.37
2019-01-27T05:21:34.555Z,1.40
2019-01-27T05:24:23.496Z,1.20
2019-01-27T05:27:12.643Z,1.20
2019-01-27T05:30:01.591Z,3.03
2019-01-27T05:32:50.319Z,1.63
2019-01-27T05:35:39.268Z,1.83
2019-01-27T05:38:27.972Z,4.40
2019-01-27T05:41:16.897Z,1.00
2019-01-27T05:44:06.256Z,1.07
2019-01-27T05:46:55.110Z,1.83
2019-01-27T05:49:44.509Z,2.93
2019-01-27T05:52:33.299Z,1.20
2019-01-27T05:55:22.463Z,1.40
2019-01-27T05:58:11.420Z,1.60
2019-01-27T06:01:00.024Z,2.10
2019-01-27T06:03:48.888Z,2.07
2019-01-27T06:06:37.866Z,2.13
2019-01-27T06:09:26.720Z,2.00
2019-01-27T06:12:15.860Z,2.70
2019-01-27T06:15:05.768Z,2.40
2019-01-27T06:17:54.269Z,2.40
2019-01-27T06:20:43.244Z,2.20
2019-01-27T06:23:31.943Z,1.97
2019-01-27T06:26:21.692Z,2.23
2019-01-27T06:29:11.282Z,1.73
2019-01-27T06:32:00.853Z,1.90
2019-01-27T06:34:50.126Z,1.70
2019-01-27T06:37:39.164Z,1.37
2019-01-27T06:40:30.427Z,1.20
2019-01-27T06:43:19.672Z,1.40
2019-01-27T06:46:10.507Z,1.37
2019-01-27T06:48:59.443Z,2.40
2019-01-27T06:51:48.360Z,1.73
2019-01-27T06:54:37.158Z,1.43
2019-01-27T06:57:26.707Z,1.53
2019-01-27T07:00:46.828Z,0.97
2019-01-27T07:04:01.118Z,1.13
2019-01-27T07:07:15.182Z,1.20
2019-01-27T07:10:27.022Z,1.33
2019-01-27T07:13:41.766Z,1.20
2019-01-27T07:17:05.032Z,1.30
2019-01-27T07:20:07.483Z,1.80
2019-01-27T07:23:28.094Z,1.20
2019-01-27T07:26:33.896Z,1.50
2019-01-27T07:29:42.036Z,1.60
2019-01-27T07:32:53.661Z,1.23
2019-01-27T07:35:52.545Z,1.80
2019-01-27T07:38:59.072Z,1.50
2019-01-27T07:42:09.940Z,1.43
2019-01-27T07:45:05.572Z,1.57
2019-01-27T07:48:06.780Z,1.57
2019-01-27T07:51:20.145Z,1.30
2019-01-27T07:54:26.726Z,1.43
2019-01-27T07:57:32.435Z,1.70
2019-01-27T08:00:28.680Z,2.00
2019-01-27T08:03:39.516Z,2.17
2019-01-27T08:06:46.150Z,1.60
2019-01-27T08:10:00.468Z,1.60
2019-01-27T08:13:06.562Z,1.53
2019-01-27T08:16:17.631Z,2.03
2019-01-27T08:19:34.571Z,1.57
2019-01-27T08:22:30.091Z,1.80
2019-01-27T08:25:38.199Z,1.73
2019-01-27T08:29:01.439Z,3.27
2019-01-27T08:32:06.752Z,1.60
2019-01-27T08:35:23.884Z,2.23
2019-01-27T08:38:31.858Z,2.50
2019-01-27T08:41:41.238Z,1.70
2019-01-27T08:44:48.416Z,1.97
2019-01-27T08:47:38.026Z,1.80
2019-01-27T08:50:27.344Z,2.67
2019-01-27T08:53:16.262Z,1.70
2019-01-27T08:56:05.947Z,1.73
2019-01-27T08:58:54.867Z,3.30
2019-01-27T09:02:06.103Z,1.70
2019-01-27T09:05:19.657Z,2.00
2019-01-27T09:08:27.496Z,2.00
2019-01-27T09:11:35.543Z,1.50
2019-01-27T09:14:41.951Z,3.27
2019-01-27T09:17:41.468Z,1.97
2019-01-27T09:20:49.453Z,1.87
2019-01-27T09:23:57.022Z,5.07
2019-01-27T09:26:50.442Z,4.50
2019-01-27T09:29:57.073Z,6.63
2019-01-27T09:32:59.858Z,3.03
2019-01-27T09:36:02.147Z,4.20
2019-01-27T09:39:10.555Z,6.67
2019-01-27T09:42:21.061Z,6.83
2019-01-27T09:45:22.857Z,3.17
2019-01-27T09:48:29.889Z,2.27
2019-01-27T09:51:44.536Z,4.60
2019-01-27T09:54:51.663Z,2.10
2019-01-27T09:57:59.599Z,2.33
2019-01-27T10:01:09.870Z,2.50
2019-01-27T10:04:16.791Z,2.50
2019-01-27T10:07:28.057Z,6.37
2019-01-27T10:10:45.209Z,3.23
2019-01-27T10:13:56.200Z,5.23
2019-01-27T10:17:07.380Z,3.07
2019-01-27T10:20:15.730Z,3.77
2019-01-27T10:23:25.865Z,2.60
2019-01-27T10:26:36.499Z,5.73
2019-01-27T10:30:03.322Z,5.07
2019-01-27T10:32:58.803Z,5.23
2019-01-27T10:36:10.012Z,3.90
2019-01-27T10:39:07.994Z,2.17
2019-01-27T10:42:22.337Z,2.20
2019-01-27T10:45:33.390Z,2.43
2019-01-27T10:48:40.502Z,3.83
2019-01-27T10:51:39.694Z,2.60
2019-01-27T10:54:46.189Z,5.43
2019-01-27T10:57:57.297Z,3.67
2019-01-27T11:01:05.234Z,3.77
2019-01-27T11:04:12.136Z,4.83
2019-01-27T11:07:21.633Z,2.03
2019-01-27T11:10:29.403Z,2.50
2019-01-27T11:13:41.004Z,1.83
2019-01-27T11:16:48.726Z,2.80
2019-01-27T11:19:43.954Z,2.13
2019-01-27T11:22:48.428Z,2.60
2019-01-27T11:25:59.980Z,1.77
2019-01-27T11:29:03.249Z,4.27
2019-01-27T11:32:17.717Z,2.23
2019-01-27T11:35:18.824Z,2.23
2019-01-27T11:38:18.520Z,3.50
2019-01-27T11:41:35.927Z,2.20
2019-01-27T11:44:34.876Z,2.00
2019-01-27T11:47:48.972Z,3.20
2019-01-27T11:50:56.220Z,2.40
2019-01-27T11:53:44.945Z,3.17
2019-01-27T11:56:34.377Z,1.70
2019-01-27T11:59:23.796Z,5.10
2019-01-27T12:02:12.565Z,2.17
2019-01-27T12:05:01.771Z,1.67
2019-01-27T12:07:50.996Z,1.40
2019-01-27T12:10:40.072Z,2.70
2019-01-27T12:13:29.947Z,2.00
2019-01-27T12:16:19.282Z,1.70
2019-01-27T12:19:08.697Z,1.90
2019-01-27T12:21:58.439Z,2.40
2019-01-27T12:24:49.765Z,2.70
2019-01-27T12:27:39.078Z,2.13
2019-01-27T12:30:28.199Z,2.70
2019-01-27T12:33:17.555Z,3.00
2019-01-27T12:36:06.145Z,5.10
2019-01-27T12:38:55.550Z,3.07
2019-01-27T12:41:45.290Z,2.30
2019-01-27T12:44:34.700Z,3.93
2019-01-27T12:47:23.969Z,5.70
2019-01-27T12:50:14.958Z,12.97
2019-01-27T12:53:04.169Z,18.37
2019-01-27T12:55:53.648Z,29.80
2019-01-27T12:58:43.091Z,24.57
2019-01-27T13:01:32.521Z,24.90
2019-01-27T13:04:21.368Z,21.17
2019-01-27T13:07:11.224Z,21.10
2019-01-27T13:10:00.253Z,28.57
2019-01-27T13:12:49.296Z,22.90
2019-01-27T13:15:38.450Z,27.17
2019-01-27T13:18:27.580Z,33.90
2019-01-27T13:21:16.543Z,40.47
2019-01-27T13:24:05.377Z,45.50
2019-01-27T13:26:54.727Z,46.90
2019-01-27T13:29:43.697Z,41.90
2019-01-27T13:32:32.796Z,39.23
2019-01-27T13:35:22.470Z,26.90
2019-01-27T13:38:11.575Z,17.00
2019-01-27T13:41:00.502Z,11.53
2019-01-27T13:43:50.337Z,6.20
2019-01-27T13:46:39.975Z,3.43
2019-01-27T13:49:29.042Z,3.57
2019-01-27T13:52:18.386Z,3.40
2019-01-27T13:55:11.210Z,7.17
2019-01-27T13:58:00.831Z,3.57
2019-01-27T14:00:50.179Z,3.20
2019-01-27T14:03:39.363Z,3.13
2019-01-27T14:06:28.742Z,2.70
2019-01-27T14:09:18.195Z,4.43
2019-01-27T14:12:07.247Z,4.40
2019-01-27T14:14:56.801Z,3.83
2019-01-27T14:17:46.111Z,4.03
2019-01-27T14:20:34.775Z,3.87
2019-01-27T14:23:24.241Z,6.17
2019-01-27T14:26:13.178Z,6.40
2019-01-27T14:29:02.392Z,6.33
2019-01-27T14:31:51.440Z,3.10
2019-01-27T14:34:40.704Z,4.60
2019-01-27T14:37:29.857Z,3.63
2019-01-27T14:40:21.124Z,3.40
2019-01-27T14:43:09.721Z,3.60
2019-01-27T14:45:58.678Z,4.63
2019-01-27T14:48:48.297Z,3.87
2019-01-27T14:51:37.685Z,4.03
2019-01-27T14:54:26.975Z,3.80
2019-01-27T14:57:16.128Z,3.90
2019-01-27T15:00:06.961Z,4.43
2019-01-27T15:02:58.241Z,3.73
2019-01-27T15:05:47.590Z,4.13
2019-01-27T15:08:36.685Z,3.60
2019-01-27T15:11:25.734Z,3.50
2019-01-27T15:14:14.485Z,2.97
2019-01-27T15:17:04.793Z,4.20
2019-01-27T15:19:54.244Z,2.10
2019-01-27T15:22:43.302Z,2.13
2019-01-27T15:25:33.427Z,2.93
2019-01-27T15:28:22.441Z,1.90
2019-01-27T15:31:11.524Z,3.77
2019-01-27T15:34:00.771Z,1.83
2019-01-27T15:36:49.988Z,4.23
2019-01-27T15:39:38.703Z,2.27
2019-01-27T15:42:27.844Z,2.30
2019-01-27T15:45:19.057Z,3.00
2019-01-27T15:48:08.119Z,9.70
2019-01-27T15:50:57.420Z,3.60
2019-01-27T15:53:47.108Z,4.83
2019-01-27T15:56:35.974Z,9.50
2019-01-27T15:59:25.264Z,13.73
2019-01-27T16:02:14.048Z,9.97
2019-01-27T16:05:03.370Z,10.10
2019-01-27T16:07:53.427Z,10.97
2019-01-27T16:10:42.672Z,8.10
2019-01-27T16:13:31.397Z,16.30
2019-01-27T16:16:20.945Z,12.03
2019-01-27T16:19:10.059Z,10.53
2019-01-27T16:21:59.769Z,17.33
2019-01-27T16:24:48.596Z,20.87
2019-01-27T16:27:37.840Z,14.10
2019-01-27T16:30:51.217Z,14.07
2019-01-27T16:34:02.071Z,15.90
2019-01-27T16:36:50.748Z,23.73
2019-01-27T16:39:40.293Z,12.27
2019-01-27T16:42:29.700Z,9.83
2019-01-27T16:45:18.632Z,12.60
2019-01-27T16:48:07.033Z,14.97
2019-01-27T16:50:56.529Z,13.20
2019-01-27T16:53:45.091Z,16.17
2019-01-27T16:56:34.590Z,14.17
2019-01-27T16:59:24.016Z,13.43
2019-01-27T17:02:13.220Z,11.40
2019-01-27T17:05:02.929Z,21.37
2019-01-27T17:07:52.296Z,10.30
2019-01-27T17:10:41.223Z,17.53
2019-01-27T17:13:30.781Z,15.50
2019-01-27T17:16:20.248Z,15.33
2019-01-27T17:19:08.779Z,7.60
2019-01-27T17:21:57.644Z,13.80
2019-01-27T17:24:46.709Z,15.70
2019-01-27T17:27:35.702Z,15.07
2019-01-27T17:30:24.736Z,13.83
2019-01-27T17:33:14.208Z,9.97
2019-01-27T17:36:03.752Z,11.53
2019-01-27T17:38:53.088Z,17.07
2019-01-27T17:41:43.471Z,10.40
2019-01-27T17:44:32.156Z,14.23
2019-01-27T17:47:21.046Z,14.10
2019-01-27T17:50:12.608Z,13.37
2019-01-27T17:53:02.027Z,18.80
2019-01-27T17:55:50.677Z,25.77
2019-01-27T17:58:57.297Z,19.77
2019-01-27T18:02:20.740Z,17.07
2019-01-27T18:05:23.528Z,12.50
2019-01-27T18:08:34.070Z,13.63
2019-01-27T18:11:31.028Z,13.77
2019-01-27T18:17:19.469Z,9.37
2019-01-27T18:20:12.130Z,14.60
2019-01-27T18:23:02.001Z,21.57
2019-01-27T18:25:51.063Z,14.50
2019-01-27T18:28:40.195Z,13.70
2019-01-27T18:31:29.271Z,13.13
2019-01-27T18:34:18.788Z,13.80
2019-01-27T18:37:08.292Z,12.00
2019-01-27T18:39:57.399Z,17.80
2019-01-27T18:42:46.803Z,11.63
2019-01-27T18:45:37.797Z,12.07
2019-01-27T18:48:26.843Z,23.80
2019-01-27T18:51:17.226Z,17.37
2019-01-27T18:54:25.800Z,13.80
2019-01-27T18:57:36.215Z,13.97
2019-01-27T19:00:40.394Z,12.30
2019-01-27T19:03:41.009Z,17.83
2019-01-27T19:07:04.717Z,15.00
2019-01-27T19:10:30.732Z,17.27
2019-01-27T19:13:38.483Z,14.53
2019-01-27T19:16:52.127Z,11.47
2019-01-27T19:20:03.696Z,11.50
2019-01-27T19:23:01.774Z,15.67
